createdAt,value
2022-11-03T00:02:12.081Z,75.44
2022-11-03T00:04:39.465Z,76.71
2022-11-03T00:07:09.017Z,75.83
2022-11-03T00:09:36.432Z,75.56
2022-11-03T00:12:08.239Z,75.51
2022-11-03T00:14:35.470Z,75.68
2022-11-03T00:17:02.545Z,75.54
2022-11-03T00:19:29.793Z,75.64
2022-11-03T00:21:59.479Z,75.81
2022-11-03T00:24:26.618Z,76.93
2022-11-03T00:26:53.733Z,76.75
2022-11-03T00:29:21.706Z,76.49
2022-11-03T00:31:48.935Z,76.93
2022-11-03T00:34:16.150Z,77.19
2022-11-03T00:36:44.943Z,76.40
2022-11-03T00:39:14.841Z,77.11
2022-11-03T00:41:42.207Z,76.40
2022-11-03T00:44:10.790Z,75.88
2022-11-03T00:46:40.310Z,76.42
2022-11-03T00:49:07.515Z,75.88
2022-11-03T00:51:37.720Z,75.52
2022-11-03T00:56:44.337Z,76.16
2022-11-03T00:59:11.526Z,75.52
2022-11-03T01:01:46.553Z,76.59
2022-11-03T01:04:43.658Z,75.27
2022-11-03T01:07:10.752Z,75.97
2022-11-03T01:09:41.096Z,76.08
2022-11-03T01:12:18.523Z,75.42
2022-11-03T01:14:54.004Z,76.85
2022-11-03T01:17:28.318Z,76.11
2022-11-03T01:19:56.337Z,75.78
2022-11-03T01:22:24.516Z,75.14
2022-11-03T01:24:54.157Z,76.27
2022-11-03T01:27:23.200Z,76.20
2022-11-03T01:29:53.214Z,76.08
2022-11-03T01:32:20.362Z,76.06
2022-11-03T01:34:47.559Z,75.48
2022-11-03T01:37:16.900Z,75.87
2022-11-03T01:39:44.154Z,76.16
2022-11-03T01:42:14.624Z,77.04
2022-11-03T01:44:48.629Z,76.81
2022-11-03T01:47:31.567Z,76.47
2022-11-03T01:50:20.135Z,76.73
2022-11-03T01:52:58.747Z,78.61
2022-11-03T01:55:32.547Z,77.85
2022-11-03T01:58:19.721Z,77.09
2022-11-03T02:00:56.490Z,76.79
2022-11-03T02:03:24.416Z,78.49
2022-11-03T02:05:53.504Z,77.88
2022-11-03T02:08:34.409Z,77.56
2022-11-03T02:11:27.081Z,77.92
2022-11-03T02:13:54.090Z,77.55
2022-11-03T02:16:23.488Z,77.42
2022-11-03T02:18:51.767Z,77.13
2022-11-03T02:21:35.927Z,77.60
2022-11-03T02:24:30.517Z,76.62
2022-11-03T02:26:57.791Z,76.24
2022-11-03T02:29:27.448Z,76.04
2022-11-03T02:32:26.874Z,77.18
2022-11-03T02:35:15.264Z,76.96
2022-11-03T02:37:48.492Z,76.21
2022-11-03T02:40:34.931Z,77.12
2022-11-03T02:43:04.192Z,77.22
2022-11-03T02:45:32.283Z,76.58
2022-11-03T02:48:01.991Z,76.63
2022-11-03T02:50:32.524Z,76.86
2022-11-03T02:53:00.289Z,77.37
2022-11-03T02:55:45.642Z,76.96
2022-11-03T02:58:21.733Z,77.62
2022-11-03T03:01:15.190Z,76.92
2022-11-03T03:03:58.164Z,76.52
2022-11-03T03:06:43.605Z,76.72
2022-11-03T03:09:20.729Z,76.70
2022-11-03T03:11:51.635Z,77.04
2022-11-03T03:14:37.386Z,76.70
2022-11-03T03:17:18.785Z,77.43
2022-11-03T03:19:59.259Z,77.44
2022-11-03T03:22:44.006Z,77.86
2022-11-03T03:25:30.557Z,77.66
2022-11-03T03:28:15.956Z,79.94
2022-11-03T03:30:48.538Z,81.38
2022-11-03T03:33:17.975Z,81.22
2022-11-03T03:35:48.400Z,81.65
2022-11-03T03:38:30.773Z,81.32
2022-11-03T03:40:59.664Z,81.02
2022-11-03T03:43:29.109Z,80.69
2022-11-03T03:46:04.210Z,79.79
2022-11-03T03:48:31.408Z,80.68
2022-11-03T03:51:00.403Z,79.54
2022-11-03T03:53:30.411Z,79.62
2022-11-03T03:55:58.985Z,79.65
2022-11-03T03:58:26.263Z,78.71
2022-11-03T04:00:54.504Z,78.39
2022-11-03T04:03:25.465Z,79.88
2022-11-03T04:05:54.457Z,81.55
2022-11-03T04:08:21.774Z,80.49
2022-11-03T04:11:09.528Z,79.59
2022-11-03T04:13:55.459Z,80.53
2022-11-03T04:16:41.291Z,79.42
2022-11-03T04:19:32.644Z,77.89
2022-11-03T04:22:18.277Z,77.69
2022-11-03T04:24:55.457Z,77.72
2022-11-03T04:27:31.315Z,77.53
2022-11-03T04:30:10.082Z,76.84
2022-11-03T04:32:38.098Z,77.54
2022-11-03T04:35:27.975Z,77.41
2022-11-03T04:38:03.691Z,77.80
2022-11-03T04:40:31.144Z,77.78
2022-11-03T04:42:58.419Z,78.96
2022-11-03T04:45:34.198Z,78.55
2022-11-03T04:48:14.656Z,79.47
2022-11-03T04:50:46.760Z,78.87
2022-11-03T04:53:18.320Z,78.38
2022-11-03T04:55:48.392Z,79.13
2022-11-03T04:58:28.714Z,78.00
2022-11-03T05:00:59.979Z,78.56
2022-11-03T05:03:36.318Z,78.15
2022-11-03T05:06:28.967Z,78.73
2022-11-03T05:09:07.890Z,78.23
2022-11-03T05:11:37.583Z,78.13
2022-11-03T05:14:21.944Z,78.97
2022-11-03T05:16:51.963Z,79.23
2022-11-03T05:19:26.300Z,79.26
2022-11-03T05:21:56.460Z,77.99
2022-11-03T05:24:27.823Z,78.32
2022-11-03T05:26:58.248Z,78.07
2022-11-03T05:29:26.898Z,77.37
2022-11-03T05:31:57.203Z,77.83
2022-11-03T05:34:38.787Z,77.75
2022-11-03T05:37:34.694Z,77.37
2022-11-03T05:40:15.479Z,77.28
2022-11-03T05:42:47.222Z,77.36
2022-11-03T05:45:31.095Z,77.33
2022-11-03T05:48:01.522Z,77.32
2022-11-03T05:50:35.223Z,77.61
2022-11-03T05:53:29.944Z,78.37
2022-11-03T05:56:02.296Z,78.02
2022-11-03T05:58:43.168Z,78.40
2022-11-03T06:01:31.436Z,77.56
2022-11-03T06:04:26.883Z,76.49
2022-11-03T06:07:23.648Z,74.75
2022-11-03T06:09:52.472Z,73.44
2022-11-03T06:12:24.726Z,72.18
2022-11-03T06:14:52.735Z,70.14
2022-11-03T06:17:29.650Z,69.13
2022-11-03T06:19:59.855Z,67.75
2022-11-03T06:22:36.137Z,65.88
2022-11-03T06:25:25.287Z,63.01
2022-11-03T06:27:53.480Z,63.03
2022-11-03T06:30:36.128Z,60.12
2022-11-03T06:33:25.760Z,58.64
2022-11-03T06:35:59.582Z,57.94
2022-11-03T06:38:31.778Z,56.40
2022-11-03T06:40:59.688Z,56.22
2022-11-03T06:43:39.696Z,54.12
2022-11-03T06:46:19.172Z,52.01
2022-11-03T06:48:46.610Z,52.12
2022-11-03T06:51:29.236Z,49.89
2022-11-03T06:54:00.439Z,49.32
2022-11-03T06:56:37.068Z,47.27
2022-11-03T06:59:09.236Z,47.33
2022-11-03T07:01:39.109Z,47.91
2022-11-03T07:04:17.123Z,44.77
2022-11-03T07:06:49.110Z,44.36
2022-11-03T07:09:28.129Z,43.65
2022-11-03T07:12:02.228Z,42.96
2022-11-03T07:14:33.320Z,44.76
2022-11-03T07:17:07.402Z,42.32
2022-11-03T07:19:42.024Z,41.56
2022-11-03T07:22:25.742Z,40.39
2022-11-03T07:25:00.543Z,40.89
2022-11-03T07:27:34.526Z,39.61
2022-11-03T07:30:19.158Z,38.27
2022-11-03T07:32:53.112Z,39.68
2022-11-03T07:36:00.403Z,40.53
2022-11-03T07:38:26.736Z,40.45
2022-11-03T07:40:56.696Z,39.54
2022-11-03T07:43:35.884Z,38.89
2022-11-03T07:46:05.937Z,37.63
2022-11-03T07:48:46.617Z,37.43
2022-11-03T07:51:22.729Z,36.83
2022-11-03T07:54:03.468Z,37.68
2022-11-03T07:56:42.916Z,37.16
2022-11-03T07:59:11.464Z,37.19
2022-11-03T08:01:50.275Z,39.80
2022-11-03T08:04:25.699Z,35.92
2022-11-03T08:06:53.278Z,36.27
2022-11-03T08:09:21.439Z,35.59
2022-11-03T08:11:50.182Z,37.36
2022-11-03T08:14:17.876Z,37.00
2022-11-03T08:16:45.301Z,35.12
2022-11-03T08:19:12.792Z,34.81
2022-11-03T08:21:39.948Z,35.10
2022-11-03T08:24:07.281Z,35.60
2022-11-03T08:26:34.372Z,35.47
2022-11-03T08:29:03.967Z,35.08
2022-11-03T08:31:31.277Z,36.41
2022-11-03T08:33:58.615Z,35.60
2022-11-03T08:36:25.933Z,34.75
2022-11-03T08:38:53.021Z,34.16
2022-11-03T08:41:20.333Z,36.18
2022-11-03T08:43:47.558Z,37.67
2022-11-03T08:46:17.813Z,39.16
2022-11-03T08:48:46.411Z,35.91
2022-11-03T08:51:15.515Z,33.57
2022-11-03T08:53:46.549Z,35.06
2022-11-03T08:56:15.039Z,35.37
2022-11-03T08:58:44.394Z,34.12
2022-11-03T09:01:11.957Z,34.91
2022-11-03T09:03:40.458Z,36.66
2022-11-03T09:06:09.986Z,34.90
2022-11-03T09:11:24.453Z,36.91
2022-11-03T09:13:51.782Z,36.07
2022-11-03T09:16:19.033Z,34.75
2022-11-03T09:18:46.448Z,36.44
2022-11-03T09:21:14.966Z,36.19
2022-11-03T09:23:42.484Z,37.71
2022-11-03T09:26:09.859Z,38.54
2022-11-03T09:28:37.080Z,38.02
2022-11-03T09:31:04.455Z,36.77
2022-11-03T09:33:31.709Z,36.83
2022-11-03T09:35:59.019Z,36.06
2022-11-03T09:38:26.297Z,33.88
2022-11-03T09:40:54.668Z,33.36
2022-11-03T09:43:22.349Z,34.14
2022-11-03T09:45:49.597Z,33.51
2022-11-03T09:48:16.907Z,33.54
2022-11-03T09:50:44.200Z,36.39
2022-11-03T09:53:13.097Z,30.87
2022-11-03T09:55:40.685Z,30.63
2022-11-03T09:58:16.416Z,30.46
2022-11-03T10:00:44.800Z,29.43
2022-11-03T10:03:18.139Z,30.94
2022-11-03T10:05:47.223Z,28.28
2022-11-03T10:08:30.992Z,30.25
2022-11-03T10:11:02.159Z,30.28
2022-11-03T10:13:43.844Z,29.08
2022-11-03T10:16:17.414Z,30.10
2022-11-03T10:18:44.957Z,31.34
2022-11-03T10:21:29.690Z,30.34
2022-11-03T10:23:56.845Z,30.73
2022-11-03T10:26:26.389Z,30.65
2022-11-03T10:29:05.072Z,29.29
2022-11-03T10:31:41.768Z,27.24
2022-11-03T10:34:39.441Z,27.99
2022-11-03T10:37:23.603Z,26.47
2022-11-03T10:39:56.800Z,30.07
2022-11-03T10:42:35.357Z,27.90
2022-11-03T10:45:19.276Z,26.63
2022-11-03T10:48:07.089Z,25.66
2022-11-03T10:50:34.320Z,25.46
2022-11-03T10:53:01.897Z,25.36
2022-11-03T10:55:29.387Z,25.37
2022-11-03T10:57:58.310Z,27.43
2022-11-03T11:00:26.196Z,31.98
2022-11-03T11:03:00.263Z,29.25
2022-11-03T11:05:30.087Z,28.73
2022-11-03T11:07:59.308Z,28.47
2022-11-03T11:10:30.084Z,29.35
2022-11-03T11:13:18.760Z,28.83
2022-11-03T11:15:51.273Z,27.29
2022-11-03T11:18:30.736Z,27.44
2022-11-03T11:21:22.471Z,25.63
2022-11-03T11:23:52.686Z,25.01
2022-11-03T11:26:25.935Z,28.22
2022-11-03T11:29:11.776Z,28.23
2022-11-03T11:31:46.351Z,28.70
2022-11-03T11:34:17.471Z,27.45
2022-11-03T11:37:10.967Z,31.57
2022-11-03T11:39:44.384Z,29.73
2022-11-03T11:42:17.836Z,31.12
2022-11-03T11:44:54.856Z,29.26
2022-11-03T11:47:50.167Z,30.19
2022-11-03T11:50:28.166Z,31.18
2022-11-03T11:53:28.987Z,30.04
2022-11-03T11:56:08.402Z,31.68
2022-11-03T11:58:50.418Z,31.39
2022-11-03T12:01:29.833Z,32.10
2022-11-03T12:04:05.920Z,34.17
2022-11-03T12:06:40.759Z,34.90
2022-11-03T12:09:20.477Z,35.54
2022-11-03T12:12:07.162Z,37.53
2022-11-03T12:14:38.774Z,37.10
2022-11-03T12:17:17.952Z,39.16
2022-11-03T12:19:55.424Z,40.75
2022-11-03T12:22:26.416Z,38.84
2022-11-03T12:25:00.894Z,37.33
2022-11-03T12:27:28.061Z,39.13
2022-11-03T12:30:01.005Z,37.04
2022-11-03T12:32:36.007Z,38.79
2022-11-03T12:35:09.485Z,37.37
2022-11-03T12:37:38.078Z,39.40
2022-11-03T12:40:06.512Z,39.40
2022-11-03T12:42:33.606Z,38.15
2022-11-03T12:45:01.289Z,39.10
2022-11-03T12:47:28.403Z,42.00
2022-11-03T12:49:55.598Z,40.87
2022-11-03T12:52:22.639Z,45.11
2022-11-03T12:54:49.773Z,46.38
2022-11-03T12:57:17.116Z,44.83
2022-11-03T12:59:44.305Z,44.28
2022-11-03T13:02:14.190Z,45.35
2022-11-03T13:04:41.425Z,43.87
2022-11-03T13:07:08.915Z,44.53
2022-11-03T13:09:36.116Z,44.62
2022-11-03T13:12:22.261Z,46.04
2022-11-03T13:14:51.853Z,47.37
2022-11-03T13:17:18.945Z,46.61
2022-11-03T13:19:46.102Z,47.34
2022-11-03T13:22:13.139Z,46.94
2022-11-03T13:24:40.390Z,46.58
2022-11-03T13:27:07.565Z,47.85
2022-11-03T13:29:35.939Z,48.13
2022-11-03T13:32:06.224Z,47.00
2022-11-03T13:34:33.632Z,47.21
2022-11-03T13:37:00.864Z,47.38
2022-11-03T13:39:27.921Z,49.49
2022-11-03T13:41:55.056Z,49.00
2022-11-03T13:44:22.096Z,50.25
2022-11-03T13:46:49.435Z,49.48
2022-11-03T13:49:52.519Z,49.59
2022-11-03T13:52:05.940Z,49.49
2022-11-03T14:00:13.948Z,50.58
2022-11-03T14:05:30.835Z,51.63
2022-11-03T14:07:57.982Z,51.43
2022-11-03T14:10:25.128Z,51.67
2022-11-03T14:12:52.296Z,52.36
2022-11-03T14:15:21.982Z,52.25
2022-11-03T14:17:49.291Z,52.11
2022-11-03T14:20:16.464Z,53.63
2022-11-03T14:22:46.213Z,53.12
2022-11-03T14:25:13.305Z,54.05
2022-11-03T14:27:40.436Z,53.73
2022-11-03T14:30:08.425Z,55.12
2022-11-03T14:32:35.575Z,55.15
2022-11-03T14:35:03.052Z,55.22
2022-11-03T14:37:30.235Z,55.21
2022-11-03T14:39:57.366Z,55.72
2022-11-03T14:42:24.457Z,54.69
2022-11-03T14:47:23.559Z,56.44
2022-11-03T14:49:50.646Z,56.84
2022-11-03T14:52:18.379Z,56.91
2022-11-03T14:54:45.668Z,57.90
2022-11-03T14:57:12.792Z,57.72
2022-11-03T14:59:39.937Z,57.86
2022-11-03T15:02:07.448Z,57.87
2022-11-03T15:04:34.796Z,59.65
2022-11-03T15:07:01.927Z,58.98
2022-11-03T15:09:29.247Z,59.46
2022-11-03T15:11:56.359Z,60.38
2022-11-03T15:14:23.716Z,60.56
2022-11-03T15:16:53.075Z,61.06
2022-11-03T15:19:20.209Z,62.34
2022-11-03T15:21:47.291Z,62.68
2022-11-03T15:27:01.402Z,62.22
2022-11-03T15:29:28.621Z,62.11
2022-11-03T15:31:55.788Z,62.28
2022-11-03T15:34:22.921Z,63.25
2022-11-03T15:36:50.100Z,64.16
2022-11-03T15:39:18.027Z,64.34
2022-11-03T15:41:45.101Z,63.93
2022-11-03T15:44:12.146Z,63.14
2022-11-03T15:46:39.280Z,63.25
2022-11-03T15:49:06.375Z,63.85
2022-11-03T15:51:35.663Z,63.42
2022-11-03T15:54:02.832Z,63.98
2022-11-03T15:56:33.303Z,63.99
2022-11-03T15:59:00.424Z,64.50
2022-11-03T16:01:32.199Z,65.49
2022-11-03T16:03:59.944Z,65.46
2022-11-03T16:06:53.821Z,64.66
2022-11-03T16:09:14.387Z,65.72
2022-11-03T16:11:41.494Z,65.72
2022-11-03T16:14:08.625Z,66.46
2022-11-03T16:16:35.715Z,67.52
2022-11-03T16:19:02.797Z,66.56
2022-11-03T16:21:29.991Z,66.08
2022-11-03T16:23:57.128Z,65.75
2022-11-03T16:26:26.562Z,66.62
2022-11-03T16:28:53.654Z,67.36
2022-11-03T16:31:20.718Z,66.59
2022-11-03T16:33:47.827Z,67.72
2022-11-03T16:36:17.440Z,67.29
2022-11-03T16:38:46.845Z,68.46
2022-11-03T16:41:14.040Z,67.69
2022-11-03T16:43:41.111Z,68.06
2022-11-03T16:46:08.211Z,68.71
2022-11-03T16:48:35.242Z,69.33
2022-11-03T16:51:02.329Z,68.60
2022-11-03T16:53:29.341Z,67.99
2022-11-03T16:55:56.469Z,68.49
2022-11-03T16:58:23.650Z,68.51
2022-11-03T17:00:50.900Z,68.20
2022-11-03T17:03:18.009Z,69.03
2022-11-03T17:05:45.145Z,68.64
2022-11-03T17:08:31.976Z,68.90
2022-11-03T17:10:59.491Z,69.91
2022-11-03T17:13:26.685Z,68.93
2022-11-03T17:15:53.833Z,70.02
2022-11-03T17:18:20.996Z,69.93
2022-11-03T17:20:48.152Z,70.55
2022-11-03T17:23:15.333Z,71.23
2022-11-03T17:25:42.553Z,71.10
2022-11-03T17:28:11.865Z,71.12
2022-11-03T17:30:40.231Z,71.60
2022-11-03T17:33:17.082Z,72.16
2022-11-03T17:35:46.454Z,72.03
2022-11-03T17:38:17.753Z,72.58
2022-11-03T17:40:48.685Z,73.80
2022-11-03T17:43:27.728Z,72.63
2022-11-03T17:45:55.172Z,73.19
2022-11-03T17:48:24.402Z,73.29
2022-11-03T17:50:55.529Z,72.49
2022-11-03T17:53:26.931Z,73.05
2022-11-03T17:58:46.495Z,72.88
2022-11-03T18:01:22.655Z,73.70
2022-11-03T18:03:49.982Z,74.60
2022-11-03T18:06:19.689Z,74.78
2022-11-03T18:08:48.622Z,74.31
2022-11-03T18:11:43.945Z,74.72
2022-11-03T18:14:11.351Z,75.42
2022-11-03T18:16:38.488Z,74.66
2022-11-03T18:19:06.211Z,74.88
2022-11-03T18:21:33.285Z,74.46
2022-11-03T18:24:00.348Z,74.57
2022-11-03T18:26:29.210Z,74.42
2022-11-03T18:28:56.329Z,74.75
2022-11-03T18:31:43.867Z,75.95
2022-11-03T18:34:21.162Z,76.34
2022-11-03T18:36:48.616Z,74.94
2022-11-03T18:39:24.340Z,75.83
2022-11-03T18:41:51.520Z,76.21
2022-11-03T18:44:31.137Z,76.13
2022-11-03T18:46:58.938Z,75.67
2022-11-03T18:49:30.276Z,75.73
2022-11-03T18:52:04.965Z,76.45
2022-11-03T18:54:34.700Z,76.04
2022-11-03T18:57:02.840Z,76.27
2022-11-03T18:59:43.699Z,76.58
2022-11-03T19:02:28.320Z,76.26
2022-11-03T19:04:55.601Z,76.47
2022-11-03T19:07:30.512Z,76.41
2022-11-03T19:10:00.860Z,76.56
2022-11-03T19:12:28.245Z,75.99
2022-11-03T19:14:55.517Z,75.70
2022-11-03T19:17:25.546Z,76.02
2022-11-03T19:19:53.864Z,75.83
2022-11-03T19:22:23.308Z,76.14
2022-11-03T19:24:50.399Z,77.69
2022-11-03T19:27:30.908Z,77.69
2022-11-03T19:30:04.482Z,77.02
2022-11-03T19:32:37.802Z,77.23
2022-11-03T19:35:21.532Z,76.88
2022-11-03T19:37:52.763Z,76.91
2022-11-03T19:40:20.667Z,77.60
2022-11-03T19:42:48.891Z,77.48
2022-11-03T19:45:21.087Z,78.48
2022-11-03T19:48:23.086Z,78.25
2022-11-03T19:50:49.212Z,77.99
2022-11-03T19:53:23.747Z,78.37
2022-11-03T19:55:54.078Z,76.76
2022-11-03T19:58:29.487Z,77.42
2022-11-03T20:00:57.408Z,76.87
2022-11-03T20:03:25.402Z,77.83
2022-11-03T20:05:56.691Z,78.79
2022-11-03T20:08:27.361Z,78.52
2022-11-03T20:10:54.954Z,79.18
2022-11-03T20:13:25.420Z,79.18
2022-11-03T20:15:58.923Z,79.09
2022-11-03T20:18:29.846Z,79.55
2022-11-03T20:20:58.191Z,78.54
2022-11-03T20:23:52.573Z,78.59
2022-11-03T20:26:22.984Z,79.60
2022-11-03T20:28:51.367Z,79.56
2022-11-03T20:31:19.012Z,79.38
2022-11-03T20:33:46.251Z,79.35
2022-11-03T20:36:19.702Z,78.57
2022-11-03T20:38:59.602Z,79.37
2022-11-03T20:41:29.259Z,79.66
2022-11-03T20:43:57.095Z,80.30
2022-11-03T20:46:33.666Z,80.70
2022-11-03T20:49:01.129Z,79.96
2022-11-03T20:51:40.824Z,79.82
2022-11-03T20:54:20.952Z,79.68
2022-11-03T20:56:48.522Z,79.83
2022-11-03T20:59:24.658Z,79.52
2022-11-03T21:01:53.200Z,78.90
2022-11-03T21:04:21.193Z,78.98
2022-11-03T21:06:50.935Z,79.62
2022-11-03T21:09:20.199Z,80.74
2022-11-03T21:11:48.064Z,80.48
2022-11-03T21:14:22.379Z,81.04
2022-11-03T21:17:07.979Z,80.68
2022-11-03T21:19:53.973Z,80.34
2022-11-03T21:22:52.561Z,80.92
2022-11-03T21:25:22.416Z,81.14
2022-11-03T21:27:49.792Z,80.39
2022-11-03T21:30:18.447Z,81.64
2022-11-03T21:32:46.154Z,81.18
2022-11-03T21:35:20.516Z,81.40
2022-11-03T21:37:48.139Z,81.47
2022-11-03T21:40:16.314Z,80.27
2022-11-03T21:43:01.914Z,81.68
2022-11-03T21:45:29.123Z,80.31
2022-11-03T21:48:15.368Z,80.69
2022-11-03T21:50:43.448Z,80.66
2022-11-03T21:53:12.060Z,80.38
2022-11-03T21:55:40.230Z,80.01
2022-11-03T21:58:07.895Z,80.32
2022-11-03T22:00:35.197Z,79.78
2022-11-03T22:03:04.871Z,80.40
2022-11-03T22:05:34.675Z,79.45
2022-11-03T22:08:01.769Z,79.45
2022-11-03T22:10:31.374Z,79.21
2022-11-03T22:12:58.485Z,80.80
2022-11-03T22:15:44.864Z,80.28
2022-11-03T22:18:12.571Z,79.55
2022-11-03T22:20:58.777Z,80.29
2022-11-03T22:23:44.696Z,79.76
2022-11-03T22:26:33.683Z,79.23
2022-11-03T22:29:19.643Z,79.98
2022-11-03T22:31:49.233Z,79.15
2022-11-03T22:34:35.074Z,79.20
2022-11-03T22:37:02.122Z,79.35
2022-11-03T22:39:47.915Z,79.10
2022-11-03T22:42:33.975Z,79.91
2022-11-03T22:45:20.148Z,78.48
2022-11-03T22:47:47.280Z,78.16
2022-11-03T22:50:14.420Z,78.27
2022-11-03T22:52:41.553Z,78.80
2022-11-03T22:55:08.765Z,77.80
2022-11-03T22:57:38.108Z,77.45
2022-11-03T23:00:05.883Z,78.32
2022-11-03T23:02:33.106Z,77.72
2022-11-03T23:05:00.348Z,77.82
2022-11-03T23:07:32.247Z,77.74
2022-11-03T23:10:04.884Z,77.26
2022-11-03T23:12:32.503Z,77.17
2022-11-03T23:15:18.408Z,77.54
2022-11-03T23:18:04.182Z,77.47
2022-11-03T23:20:49.984Z,75.81
2022-11-03T23:23:36.990Z,76.97
2022-11-03T23:26:04.267Z,75.48
2022-11-03T23:28:31.598Z,76.57
2022-11-03T23:30:58.696Z,76.32
2022-11-03T23:33:25.894Z,75.70
2022-11-03T23:35:53.308Z,77.05
2022-11-03T23:38:20.369Z,75.38
2022-11-03T23:40:47.481Z,76.52
2022-11-03T23:43:14.569Z,75.14
2022-11-03T23:46:00.441Z,75.85
2022-11-03T23:48:45.948Z,75.69
2022-11-03T23:51:34.769Z,75.13
2022-11-03T23:54:04.211Z,75.55
2022-11-03T23:56:59.840Z,74.94
2022-11-03T23:59:28.630Z,75.00
